Time;durP1;ratioP1;P1;durP2;ratioP2;P2;SDS_P1;SDS_P2;PMS_P1;PMS_P2;Temp;Humidity;BMP_temperature;BMP_pressure;BME280_temperature;BME280_humidity;BME280_pressure;Samples;Min_cycle;Max_cycle;Signal;HPM_P1;HPM_P2
2022/03/25 00:00:36;;;;;;;1.00;0.90;;;;;;;;;;4212867;28;20090;-39
2022/03/25 00:02:38;;;;;;;1.42;0.93;;;;;;;;;;4213630;28;20060;-40
2022/03/25 00:04:39;;;;;;;0.90;0.90;;;;;;;;;;4214225;28;20048;-40
2022/03/25 00:06:41;;;;;;;0.98;0.80;;;;;;;;;;4214147;28;20449;-39
2022/03/25 00:08:42;;;;;;;0.98;0.75;;;;;;;;;;4214335;28;20048;-37
2022/03/25 00:10:43;;;;;;;2.58;0.85;;;;;;;;;;4213808;28;20043;-37
2022/03/25 00:12:44;;;;;;;1.20;0.93;;;;;;;;;;4213929;28;20087;-39
2022/03/25 00:14:45;;;;;;;1.17;0.80;;;;;;;;;;4214002;28;20134;-37
2022/03/25 00:16:46;;;;;;;1.15;0.90;;;;;;;;;;4213853;28;20086;-40
2022/03/25 00:18:47;;;;;;;1.77;1.08;;;;;;;;;;4213910;28;20097;-39
2022/03/25 00:20:49;;;;;;;1.02;0.93;;;;;;;;;;4213915;28;20060;-35
2022/03/25 00:22:50;;;;;;;0.77;0.65;;;;;;;;;;4213775;28;20048;-35
2022/03/25 00:24:51;;;;;;;1.10;1.00;;;;;;;;;;4213780;28;20131;-34
2022/03/25 00:26:52;;;;;;;1.40;1.08;;;;;;;;;;4213811;28;20548;-35
2022/03/25 00:28:53;;;;;;;1.45;0.95;;;;;;;;;;4212326;28;20056;-33
2022/03/25 00:30:54;;;;;;;1.05;0.90;;;;;;;;;;4212482;28;20089;-37
2022/03/25 00:32:55;;;;;;;1.73;0.98;;;;;;;;;;4213418;28;20048;-37
2022/03/25 00:34:56;;;;;;;0.90;0.77;;;;;;;;;;4213950;28;20148;-39
2022/03/25 00:36:57;;;;;;;1.30;0.73;;;;;;;;;;4213825;28;20055;-36
2022/03/25 00:38:58;;;;;;;0.70;0.70;;;;;;;;;;4213576;28;20071;-37
2022/03/25 00:41:00;;;;;;;1.00;0.90;;;;;;;;;;4213672;28;20052;-39
2022/03/25 00:43:01;;;;;;;1.30;1.00;;;;;;;;;;4213353;28;20348;-39
2022/03/25 00:45:04;;;;;;;0.90;0.80;;;;;;;;;;4212219;28;20085;-38
2022/03/25 00:47:05;;;;;;;0.85;0.85;;;;;;;;;;4211701;28;20627;-38
2022/03/25 00:49:06;;;;;;;0.88;0.85;;;;;;;;;;4212239;28;20048;-40
2022/03/25 00:51:07;;;;;;;1.75;0.90;;;;;;;;;;4213374;28;20450;-40
2022/03/25 00:53:08;;;;;;;1.38;0.68;;;;;;;;;;4213603;28;20087;-40
2022/03/25 00:55:09;;;;;;;1.15;0.80;;;;;;;;;;4213527;28;20051;-40
2022/03/25 00:57:10;;;;;;;1.20;1.00;;;;;;;;;;4213308;28;20044;-39
2022/03/25 00:59:12;;;;;;;0.75;0.70;;;;;;;;;;4212179;28;20147;-41
2022/03/25 01:01:15;;;;;;;2.15;0.90;;;;;;;;;;4213282;28;20476;-41
2022/03/25 01:03:16;;;;;;;1.10;1.00;;;;;;;;;;4212734;28;20075;-41
2022/03/25 01:05:19;;;;;;;0.82;0.70;;;;;;;;;;4213400;28;20195;-41
2022/03/25 01:07:22;;;;;;;1.05;0.93;;;;;;;;;;4212040;28;20040;-39
2022/03/25 01:09:23;;;;;;;1.77;1.05;;;;;;;;;;4213447;28;20040;-39
2022/03/25 01:11:24;;;;;;;1.10;1.00;;;;;;;;;;4212932;28;20113;-41
2022/03/25 01:13:26;;;;;;;1.65;1.05;;;;;;;;;;4194835;28;20543;-39
2022/03/25 01:15:26;;;;;;;1.10;0.75;;;;;;;;;;4213072;28;20100;-38
2022/03/25 01:17:27;;;;;;;1.00;0.90;;;;;;;;;;4212649;28;20232;-37
2022/03/25 01:19:28;;;;;;;1.13;0.80;;;;;;;;;;4213241;28;20048;-37
2022/03/25 01:21:30;;;;;;;1.13;0.90;;;;;;;;;;4211565;28;20052;-40
2022/03/25 01:23:31;;;;;;;0.93;0.90;;;;;;;;;;4211036;28;20059;-40
2022/03/25 01:25:32;;;;;;;1.38;1.05;;;;;;;;;;4213151;28;20093;-39
2022/03/25 01:27:33;;;;;;;1.48;1.00;;;;;;;;;;4213000;28;20048;-41
2022/03/25 01:29:35;;;;;;;1.15;0.80;;;;;;;;;;4213097;28;20094;-38
2022/03/25 01:31:36;;;;;;;0.93;0.80;;;;;;;;;;4211472;28;20580;-41
2022/03/25 01:33:38;;;;;;;1.17;0.73;;;;;;;;;;4212534;28;20086;-38
2022/03/25 01:35:40;;;;;;;1.42;0.82;;;;;;;;;;4212846;28;20545;-37
2022/03/25 01:37:41;;;;;;;1.15;0.70;;;;;;;;;;4211242;28;20081;-40
2022/03/25 01:39:42;;;;;;;0.68;0.68;;;;;;;;;;4211366;28;20552;-39
2022/03/25 01:41:47;;;;;;;0.70;0.70;;;;;;;;;;4211348;28;20081;-40
2022/03/25 01:43:53;;;;;;;0.73;0.73;;;;;;;;;;4211400;28;20591;-40
2022/03/25 01:45:54;;;;;;;1.48;0.60;;;;;;;;;;4212742;28;20051;-40
2022/03/25 01:47:55;;;;;;;1.17;0.73;;;;;;;;;;4212306;28;20048;-39
2022/03/25 01:49:57;;;;;;;1.30;0.93;;;;;;;;;;4212678;28;20508;-36
2022/03/25 01:52:03;;;;;;;1.10;1.00;;;;;;;;;;4212466;28;20048;-40
2022/03/25 01:54:17;;;;;;;1.08;0.98;;;;;;;;;;4212756;28;20051;-37
2022/03/25 01:56:21;;;;;;;1.55;0.80;;;;;;;;;;4212563;28;20085;-40
2022/03/25 01:58:25;;;;;;;1.08;0.90;;;;;;;;;;4211332;28;20044;-37
2022/03/25 02:00:29;;;;;;;1.00;0.80;;;;;;;;;;4212810;28;20044;-40
2022/03/25 02:02:30;;;;;;;1.00;0.65;;;;;;;;;;4210811;28;20149;-37
2022/03/25 02:04:31;;;;;;;0.85;0.80;;;;;;;;;;4212420;28;20445;-41
2022/03/25 02:06:32;;;;;;;0.98;0.88;;;;;;;;;;4212525;28;20044;-40
2022/03/25 02:08:34;;;;;;;0.98;0.80;;;;;;;;;;4212539;28;20093;-40
2022/03/25 02:10:36;;;;;;;1.92;1.05;;;;;;;;;;4212144;28;20145;-36
2022/03/25 02:12:37;;;;;;;1.02;0.70;;;;;;;;;;4210911;28;20048;-39
2022/03/25 02:14:38;;;;;;;1.25;0.68;;;;;;;;;;4211099;28;20408;-36
2022/03/25 02:16:41;;;;;;;1.25;0.80;;;;;;;;;;4211399;28;20078;-41
2022/03/25 02:18:43;;;;;;;0.80;0.70;;;;;;;;;;4211772;28;20069;-41
2022/03/25 02:20:45;;;;;;;1.45;0.77;;;;;;;;;;4211199;28;20085;-39
2022/03/25 02:22:48;;;;;;;0.82;0.68;;;;;;;;;;4210838;28;20073;-36
2022/03/25 02:24:49;;;;;;;0.75;0.75;;;;;;;;;;4211214;28;20094;-41
2022/03/25 02:26:51;;;;;;;1.35;1.10;;;;;;;;;;4210806;28;20514;-38
2022/03/25 02:28:54;;;;;;;0.80;0.65;;;;;;;;;;4212349;28;20055;-40
2022/03/25 02:30:55;;;;;;;2.00;1.00;;;;;;;;;;4210910;28;20048;-38
2022/03/25 02:33:02;;;;;;;1.17;1.08;;;;;;;;;;4211943;28;20095;-38
2022/03/25 02:35:04;;;;;;;1.20;0.80;;;;;;;;;;4212216;28;20115;-41
2022/03/25 02:37:06;;;;;;;2.25;0.90;;;;;;;;;;4215513;28;20040;-39
2022/03/25 02:39:08;;;;;;;0.70;0.70;;;;;;;;;;4214065;28;20051;-40
2022/03/25 02:41:10;;;;;;;1.20;0.88;;;;;;;;;;4214211;28;20105;-39
2022/03/25 02:43:11;;;;;;;1.50;0.93;;;;;;;;;;4214015;28;20052;-37
2022/03/25 02:45:21;;;;;;;1.15;0.90;;;;;;;;;;4214135;28;20613;-38
2022/03/25 02:47:22;;;;;;;1.17;1.00;;;;;;;;;;4213806;28;20043;-41
2022/03/25 02:49:24;;;;;;;1.13;0.80;;;;;;;;;;4215624;28;20052;-41
2022/03/25 02:51:25;;;;;;;0.77;0.52;;;;;;;;;;4215198;28;20047;-40
2022/03/25 02:53:27;;;;;;;0.95;0.85;;;;;;;;;;4215513;28;20098;-39
2022/03/25 02:55:28;;;;;;;0.98;0.88;;;;;;;;;;4215093;28;20056;-41
2022/03/25 02:57:29;;;;;;;0.77;0.77;;;;;;;;;;4215142;28;20036;-41
2022/03/25 02:59:30;;;;;;;1.20;0.82;;;;;;;;;;4215166;28;20044;-35
2022/03/25 03:01:33;;;;;;;0.70;0.70;;;;;;;;;;4215505;28;20044;-41
2022/03/25 03:03:34;;;;;;;0.88;0.80;;;;;;;;;;4214550;28;20051;-39
2022/03/25 03:05:36;;;;;;;0.82;0.82;;;;;;;;;;4215335;28;20073;-40
2022/03/25 03:07:37;;;;;;;0.77;0.68;;;;;;;;;;4214876;28;20055;-39
2022/03/25 03:09:38;;;;;;;1.70;0.80;;;;;;;;;;4214988;28;20047;-40
2022/03/25 03:11:39;;;;;;;2.50;0.80;;;;;;;;;;4214746;28;20090;-39
2022/03/25 03:13:40;;;;;;;0.82;0.70;;;;;;;;;;4214890;28;20102;-40
2022/03/25 03:15:41;;;;;;;1.48;0.93;;;;;;;;;;4214948;28;20101;-40
2022/03/25 03:17:42;;;;;;;2.25;0.63;;;;;;;;;;4214439;28;20051;-38
2022/03/25 03:19:43;;;;;;;0.85;0.80;;;;;;;;;;4213594;28;20136;-40
2022/03/25 03:21:45;;;;;;;1.05;0.80;;;;;;;;;;4214770;28;20093;-38
2022/03/25 03:23:46;;;;;;;2.00;0.90;;;;;;;;;;4214731;28;20052;-38
2022/03/25 03:25:47;;;;;;;1.58;0.65;;;;;;;;;;4214713;28;20055;-37
2022/03/25 03:27:48;;;;;;;0.60;0.60;;;;;;;;;;4214766;28;20514;-40
2022/03/25 03:29:49;;;;;;;1.73;0.77;;;;;;;;;;4214679;28;20556;-41
2022/03/25 03:31:50;;;;;;;0.73;0.70;;;;;;;;;;4214212;28;20104;-39
2022/03/25 03:33:51;;;;;;;0.75;0.75;;;;;;;;;;4214632;28;20476;-39
2022/03/25 03:35:53;;;;;;;1.60;0.80;;;;;;;;;;4214652;28;20093;-40
2022/03/25 03:37:54;;;;;;;1.55;0.60;;;;;;;;;;4214366;28;20109;-38
2022/03/25 03:39:55;;;;;;;0.82;0.70;;;;;;;;;;4214643;28;20089;-37
2022/03/25 03:41:56;;;;;;;0.68;0.57;;;;;;;;;;4214539;28;20052;-40
2022/03/25 03:43:57;;;;;;;0.82;0.70;;;;;;;;;;4214848;28;20056;-40
2022/03/25 03:45:58;;;;;;;0.85;0.70;;;;;;;;;;4212646;28;20059;-40
2022/03/25 03:47:59;;;;;;;0.85;0.80;;;;;;;;;;4213883;28;20087;-35
2022/03/25 03:50:00;;;;;;;1.45;0.70;;;;;;;;;;4214500;28;20052;-38
2022/03/25 03:52:02;;;;;;;1.55;0.80;;;;;;;;;;4214615;28;20089;-41
2022/03/25 03:54:03;;;;;;;1.00;0.80;;;;;;;;;;4214339;28;20048;-41
2022/03/25 03:56:23;;;;;;;1.05;0.88;;;;;;;;;;4214513;28;20089;-40
2022/03/25 03:58:24;;;;;;;0.90;0.60;;;;;;;;;;4214096;28;20105;-40
2022/03/25 04:00:25;;;;;;;0.88;0.88;;;;;;;;;;4214586;28;20048;-40
2022/03/25 04:02:26;;;;;;;0.90;0.73;;;;;;;;;;4213784;28;20392;-38
2022/03/25 04:04:27;;;;;;;2.92;0.93;;;;;;;;;;4214434;28;20070;-40
2022/03/25 04:06:28;;;;;;;1.17;0.63;;;;;;;;;;4214325;28;20059;-41
2022/03/25 04:08:29;;;;;;;0.70;0.70;;;;;;;;;;4214095;28;20548;-41
2022/03/25 04:10:30;;;;;;;1.10;0.80;;;;;;;;;;4213933;28;20052;-39
2022/03/25 04:12:31;;;;;;;0.95;0.57;;;;;;;;;;4213883;28;20048;-40
2022/03/25 04:14:32;;;;;;;1.48;1.13;;;;;;;;;;4214393;28;20085;-36
2022/03/25 04:16:33;;;;;;;1.20;0.80;;;;;;;;;;4213950;28;20080;-41
2022/03/25 04:18:34;;;;;;;0.73;0.70;;;;;;;;;;4213522;28;20044;-41
2022/03/25 04:20:35;;;;;;;0.80;0.80;;;;;;;;;;4214150;28;20046;-38
2022/03/25 04:22:37;;;;;;;0.80;0.73;;;;;;;;;;4213812;28;20537;-39
2022/03/25 04:24:38;;;;;;;1.10;0.70;;;;;;;;;;4212570;28;20051;-40
2022/03/25 04:26:39;;;;;;;2.10;0.90;;;;;;;;;;4214231;28;20043;-37
2022/03/25 04:28:40;;;;;;;1.15;0.90;;;;;;;;;;4213632;28;20450;-40
2022/03/25 04:30:42;;;;;;;0.60;0.60;;;;;;;;;;4213769;28;20087;-39
2022/03/25 04:32:43;;;;;;;1.83;0.70;;;;;;;;;;4213062;28;20066;-40
2022/03/25 04:34:44;;;;;;;0.90;0.70;;;;;;;;;;4213851;28;20051;-39
2022/03/25 04:36:45;;;;;;;0.70;0.60;;;;;;;;;;4212165;28;20086;-38
2022/03/25 04:38:46;;;;;;;0.95;0.85;;;;;;;;;;4213877;28;20495;-40
2022/03/25 04:40:47;;;;;;;1.10;0.98;;;;;;;;;;4212556;28;20514;-38
2022/03/25 04:42:49;;;;;;;1.10;0.90;;;;;;;;;;4213412;28;20114;-38
2022/03/25 04:44:50;;;;;;;1.05;0.95;;;;;;;;;;4213542;28;20044;-41
2022/03/25 04:46:53;;;;;;;0.73;0.70;;;;;;;;;;4212908;28;20048;-41
2022/03/25 04:48:54;;;;;;;0.70;0.60;;;;;;;;;;4213851;28;20052;-39
2022/03/25 04:50:54;;;;;;;0.85;0.75;;;;;;;;;;4212322;28;20555;-38
2022/03/25 04:52:57;;;;;;;1.23;0.70;;;;;;;;;;4213353;28;20048;-38
2022/03/25 04:54:58;;;;;;;1.13;0.80;;;;;;;;;;4213232;28;20051;-38
2022/03/25 04:56:59;;;;;;;0.88;0.73;;;;;;;;;;4212837;28;20051;-38
2022/03/25 04:59:00;;;;;;;1.23;0.70;;;;;;;;;;4212927;28;20043;-40
2022/03/25 05:01:01;;;;;;;0.50;0.50;;;;;;;;;;4213253;28;20507;-39
2022/03/25 05:03:02;;;;;;;0.90;0.70;;;;;;;;;;4212835;28;20090;-37
2022/03/25 05:05:03;;;;;;;1.30;1.10;;;;;;;;;;4213098;28;20048;-38
2022/03/25 05:07:05;;;;;;;1.45;0.52;;;;;;;;;;4213331;28;20094;-40
2022/03/25 05:09:06;;;;;;;1.02;0.93;;;;;;;;;;4213114;28;20066;-40
2022/03/25 05:11:07;;;;;;;0.77;0.60;;;;;;;;;;4213034;28;20052;-40
2022/03/25 05:13:08;;;;;;;1.27;0.73;;;;;;;;;;4213023;28;20154;-39
2022/03/25 05:15:10;;;;;;;0.70;0.70;;;;;;;;;;4213222;28;20089;-40
2022/03/25 05:17:11;;;;;;;1.25;0.80;;;;;;;;;;4212721;28;20044;-41
2022/03/25 05:19:12;;;;;;;0.88;0.70;;;;;;;;;;4212862;28;20123;-36
2022/03/25 05:21:13;;;;;;;1.35;0.80;;;;;;;;;;4212889;28;20044;-38
2022/03/25 05:23:14;;;;;;;1.13;0.98;;;;;;;;;;4212860;28;20044;-37
2022/03/25 05:25:16;;;;;;;1.55;0.85;;;;;;;;;;4211473;28;20048;-40
2022/03/25 05:27:17;;;;;;;1.15;0.90;;;;;;;;;;4212836;28;20174;-41
2022/03/25 05:29:19;;;;;;;1.35;0.80;;;;;;;;;;4212766;28;20055;-39
2022/03/25 05:31:20;;;;;;;0.77;0.77;;;;;;;;;;4212821;28;20047;-38
2022/03/25 05:33:21;;;;;;;2.15;0.60;;;;;;;;;;4212161;28;20086;-35
2022/03/25 05:35:24;;;;;;;2.05;1.05;;;;;;;;;;4212728;28;20093;-40
2022/03/25 05:37:24;;;;;;;2.17;0.80;;;;;;;;;;4212860;28;20047;-41
2022/03/25 05:39:26;;;;;;;0.80;0.60;;;;;;;;;;4212683;28;20440;-38
2022/03/25 05:41:27;;;;;;;1.27;1.17;;;;;;;;;;4212756;28;20070;-40
2022/03/25 05:43:28;;;;;;;2.05;1.10;;;;;;;;;;4212435;28;20060;-39
2022/03/25 05:45:29;;;;;;;1.15;0.90;;;;;;;;;;4212739;28;20044;-39
2022/03/25 05:47:30;;;;;;;1.25;1.15;;;;;;;;;;4211954;28;20121;-38
2022/03/25 05:49:31;;;;;;;3.15;0.93;;;;;;;;;;4194542;28;20078;-38
2022/03/25 05:51:33;;;;;;;0.60;0.60;;;;;;;;;;4212418;28;20058;-41
2022/03/25 05:53:33;;;;;;;1.13;0.90;;;;;;;;;;4212525;28;20468;-41
2022/03/25 05:55:34;;;;;;;1.85;1.00;;;;;;;;;;4212735;28;20524;-40
2022/03/25 05:57:35;;;;;;;2.25;0.80;;;;;;;;;;4212522;28;20458;-38
2022/03/25 05:59:36;;;;;;;1.40;1.00;;;;;;;;;;4212519;28;20444;-41
2022/03/25 06:01:38;;;;;;;1.13;0.88;;;;;;;;;;4208431;28;20044;-40
2022/03/25 06:03:39;;;;;;;0.88;0.70;;;;;;;;;;4210097;28;20093;-41
2022/03/25 06:05:40;;;;;;;1.92;1.10;;;;;;;;;;4210248;28;20097;-39
2022/03/25 06:07:43;;;;;;;1.63;0.98;;;;;;;;;;4210215;28;20549;-40
2022/03/25 06:09:44;;;;;;;1.67;0.93;;;;;;;;;;4209956;28;20487;-41
2022/03/25 06:11:45;;;;;;;1.25;0.93;;;;;;;;;;4209992;28;20048;-40
2022/03/25 06:13:46;;;;;;;2.22;1.23;;;;;;;;;;4210319;28;20059;-39
2022/03/25 06:15:47;;;;;;;1.17;1.02;;;;;;;;;;4210317;28;20044;-41
2022/03/25 06:17:50;;;;;;;2.55;1.25;;;;;;;;;;4208588;28;20101;-38
2022/03/25 06:19:52;;;;;;;2.33;1.38;;;;;;;;;;4210449;28;20489;-41
2022/03/25 06:21:54;;;;;;;1.73;1.13;;;;;;;;;;4210151;28;20059;-38
2022/03/25 06:23:55;;;;;;;1.60;1.38;;;;;;;;;;4210366;28;20510;-40
2022/03/25 06:25:57;;;;;;;1.52;1.15;;;;;;;;;;4210289;28;20127;-41
2022/03/25 06:27:59;;;;;;;1.90;1.25;;;;;;;;;;4210209;28;20048;-38
2022/03/25 06:30:00;;;;;;;1.73;1.38;;;;;;;;;;4210019;28;20352;-39
2022/03/25 06:32:03;;;;;;;2.55;1.58;;;;;;;;;;4209591;28;20051;-38
2022/03/25 06:34:05;;;;;;;1.30;1.17;;;;;;;;;;4209935;28;20051;-39
2022/03/25 06:36:07;;;;;;;1.63;1.20;;;;;;;;;;4209610;28;20161;-40
2022/03/25 06:38:08;;;;;;;1.30;1.20;;;;;;;;;;4208619;28;20185;-38
2022/03/25 06:40:09;;;;;;;2.25;0.90;;;;;;;;;;4209977;28;20048;-40
2022/03/25 06:42:10;;;;;;;2.00;1.42;;;;;;;;;;4209975;28;20554;-38
2022/03/25 06:44:11;;;;;;;1.50;1.20;;;;;;;;;;4209953;28;20143;-40
2022/03/25 06:46:14;;;;;;;3.90;1.17;;;;;;;;;;4210134;28;20078;-35
2022/03/25 06:48:15;;;;;;;2.72;1.73;;;;;;;;;;4209650;28;20439;-39
2022/03/25 06:50:17;;;;;;;2.65;1.40;;;;;;;;;;4210238;28;20052;-39
2022/03/25 06:52:18;;;;;;;1.25;1.13;;;;;;;;;;4209787;28;20052;-37
2022/03/25 06:54:20;;;;;;;1.85;1.20;;;;;;;;;;4209775;28;20093;-41
2022/03/25 06:56:21;;;;;;;1.77;1.42;;;;;;;;;;4210092;28;20102;-41
2022/03/25 06:58:22;;;;;;;2.17;1.42;;;;;;;;;;4209651;28;20147;-39
2022/03/25 07:00:24;;;;;;;1.58;1.33;;;;;;;;;;4209517;28;20044;-38
2022/03/25 07:02:25;;;;;;;1.50;1.40;;;;;;;;;;4209336;28;20252;-40
2022/03/25 07:04:26;;;;;;;1.42;1.13;;;;;;;;;;4210165;28;20060;-35
2022/03/25 07:06:27;;;;;;;2.10;1.67;;;;;;;;;;4209890;28;20557;-37
2022/03/25 07:08:31;;;;;;;4.68;1.75;;;;;;;;;;4191714;28;20074;-41
2022/03/25 07:10:33;;;;;;;3.10;1.70;;;;;;;;;;4209837;28;20455;-40
2022/03/25 07:12:34;;;;;;;1.95;1.60;;;;;;;;;;4209535;28;20052;-41
2022/03/25 07:14:35;;;;;;;2.47;1.70;;;;;;;;;;4209771;28;20070;-39
2022/03/25 07:16:37;;;;;;;1.58;1.48;;;;;;;;;;4209863;28;20492;-40
2022/03/25 07:18:38;;;;;;;2.63;1.50;;;;;;;;;;4208167;28;20525;-37
2022/03/25 07:20:39;;;;;;;1.80;1.40;;;;;;;;;;4210237;28;20059;-34
2022/03/25 07:22:41;;;;;;;2.60;1.90;;;;;;;;;;4212525;28;20453;-41
2022/03/25 07:24:42;;;;;;;1.80;1.55;;;;;;;;;;4212642;28;20104;-38
2022/03/25 07:26:43;;;;;;;2.20;1.50;;;;;;;;;;4212494;28;20105;-40
2022/03/25 07:28:44;;;;;;;1.75;1.60;;;;;;;;;;4212628;28;20062;-39
2022/03/25 07:30:45;;;;;;;2.05;1.55;;;;;;;;;;4212270;28;20410;-41
2022/03/25 07:32:47;;;;;;;1.83;1.65;;;;;;;;;;4212003;28;20174;-39
2022/03/25 07:34:47;;;;;;;2.85;1.85;;;;;;;;;;4211205;28;20044;-38
2022/03/25 07:36:48;;;;;;;1.52;1.20;;;;;;;;;;4212322;28;20059;-37
2022/03/25 07:38:50;;;;;;;3.53;1.88;;;;;;;;;;4212765;28;20479;-39
2022/03/25 07:40:51;;;;;;;2.33;1.63;;;;;;;;;;4212873;28;20052;-39
2022/03/25 07:42:52;;;;;;;2.28;1.38;;;;;;;;;;4212528;28;20502;-35
2022/03/25 07:44:53;;;;;;;2.15;1.40;;;;;;;;;;4212325;28;20072;-37
2022/03/25 07:46:53;;;;;;;1.67;1.58;;;;;;;;;;4210364;28;20151;-38
2022/03/25 07:48:54;;;;;;;2.45;1.85;;;;;;;;;;4211863;28;20059;-39
2022/03/25 07:50:55;;;;;;;2.05;1.83;;;;;;;;;;4212110;28;20093;-41
2022/03/25 07:52:56;;;;;;;1.70;1.40;;;;;;;;;;4212278;28;20097;-40
2022/03/25 07:54:57;;;;;;;2.35;1.55;;;;;;;;;;4212367;28;20309;-38
2022/03/25 07:56:58;;;;;;;2.00;1.63;;;;;;;;;;4210840;28;20050;-37
2022/03/25 07:58:59;;;;;;;3.17;1.50;;;;;;;;;;4211960;28;20056;-40
2022/03/25 08:01:01;;;;;;;1.70;1.60;;;;;;;;;;4211883;28;20093;-39
2022/03/25 08:03:03;;;;;;;3.15;1.90;;;;;;;;;;4211650;28;20109;-41
2022/03/25 08:05:05;;;;;;;2.45;1.33;;;;;;;;;;4211948;28;20558;-41
2022/03/25 08:07:06;;;;;;;1.63;1.45;;;;;;;;;;4211752;28;20121;-37
2022/03/25 08:09:07;;;;;;;2.20;1.50;;;;;;;;;;4212164;28;20060;-39
2022/03/25 08:11:08;;;;;;;2.63;1.73;;;;;;;;;;4211656;28;20051;-39
2022/03/25 08:13:11;;;;;;;2.58;1.60;;;;;;;;;;4211451;28;20058;-37
2022/03/25 08:15:13;;;;;;;2.42;1.77;;;;;;;;;;4211703;28;20403;-39
2022/03/25 08:17:14;;;;;;;4.30;1.95;;;;;;;;;;4211340;28;20441;-38
2022/03/25 08:19:15;;;;;;;1.60;1.38;;;;;;;;;;4212045;28;20105;-41
2022/03/25 08:21:16;;;;;;;1.80;1.60;;;;;;;;;;4210469;28;20252;-37
2022/03/25 08:28:00;;;;;;;1.70;1.60;;;;;;;;;;4195999;28;20078;-40
2022/03/25 08:30:01;;;;;;;3.10;2.03;;;;;;;;;;4195166;28;20056;-39
2022/03/25 08:32:03;;;;;;;2.50;1.83;;;;;;;;;;4197832;28;20109;-39
2022/03/25 08:34:07;;;;;;;4.07;1.67;;;;;;;;;;4207547;28;20122;-40
2022/03/25 08:36:08;;;;;;;3.17;1.83;;;;;;;;;;4210226;28;20469;-41
2022/03/25 08:38:09;;;;;;;4.95;1.75;;;;;;;;;;4207536;28;20045;-40
2022/03/25 08:40:10;;;;;;;3.78;1.70;;;;;;;;;;4209681;28;20643;-38
2022/03/25 08:42:13;;;;;;;1.75;1.60;;;;;;;;;;4210503;28;20479;-40
2022/03/25 08:44:15;;;;;;;2.85;1.42;;;;;;;;;;4209398;28;20120;-40
2022/03/25 08:46:18;;;;;;;3.25;2.20;;;;;;;;;;4210734;28;20052;-39
2022/03/25 08:48:19;;;;;;;2.38;1.77;;;;;;;;;;4210120;28;20052;-39
2022/03/25 08:50:22;;;;;;;1.98;1.77;;;;;;;;;;4209921;28;20044;-38
2022/03/25 08:52:22;;;;;;;3.08;1.70;;;;;;;;;;4207087;28;20048;-41
2022/03/25 08:54:23;;;;;;;3.17;2.03;;;;;;;;;;4209173;28;20110;-39
2022/03/25 08:56:29;;;;;;;2.67;1.60;;;;;;;;;;4207211;28;20098;-40
2022/03/25 08:58:30;;;;;;;2.80;1.77;;;;;;;;;;4208679;28;20628;-41
2022/03/25 09:00:31;;;;;;;2.75;1.85;;;;;;;;;;4210140;28;20076;-39
2022/03/25 09:02:32;;;;;;;2.60;2.30;;;;;;;;;;4209883;28;20044;-39
2022/03/25 09:04:33;;;;;;;2.47;1.70;;;;;;;;;;4208868;28;20633;-40
2022/03/25 09:06:34;;;;;;;2.95;1.90;;;;;;;;;;4209097;28;20048;-37
2022/03/25 09:08:35;;;;;;;3.22;1.73;;;;;;;;;;4211504;28;20055;-40
2022/03/25 09:10:36;;;;;;;4.68;1.95;;;;;;;;;;4210337;28;20060;-38
2022/03/25 09:12:38;;;;;;;4.70;1.80;;;;;;;;;;4208654;28;20052;-40
2022/03/25 09:14:39;;;;;;;2.08;1.52;;;;;;;;;;4205143;28;20086;-41
2022/03/25 09:16:40;;;;;;;2.10;1.40;;;;;;;;;;4200918;28;20044;-40
2022/03/25 09:18:41;;;;;;;4.22;1.85;;;;;;;;;;4197236;28;20097;-41
2022/03/25 09:20:44;;;;;;;3.47;2.22;;;;;;;;;;4202545;28;20437;-37
2022/03/25 09:22:45;;;;;;;4.18;2.20;;;;;;;;;;4206542;28;20560;-41
2022/03/25 09:24:46;;;;;;;3.20;1.65;;;;;;;;;;4208443;28;20090;-42
2022/03/25 09:26:47;;;;;;;6.32;1.90;;;;;;;;;;4196648;28;20110;-41
2022/03/25 09:28:48;;;;;;;3.97;1.85;;;;;;;;;;4199229;28;20461;-39
2022/03/25 09:30:49;;;;;;;2.08;1.80;;;;;;;;;;4205858;28;20139;-40
2022/03/25 09:32:50;;;;;;;3.25;2.20;;;;;;;;;;4204886;28;20139;-41
2022/03/25 09:35:09;;;;;;;4.60;1.83;;;;;;;;;;4186296;28;20044;-39
2022/03/25 09:37:10;;;;;;;2.28;1.85;;;;;;;;;;4203306;28;20059;-41
2022/03/25 09:39:11;;;;;;;2.45;1.90;;;;;;;;;;4204929;28;20044;-40
2022/03/25 09:41:12;;;;;;;2.35;2.08;;;;;;;;;;4204743;28;20239;-41
2022/03/25 09:43:14;;;;;;;2.95;2.10;;;;;;;;;;4202796;28;20141;-42
2022/03/25 09:45:18;;;;;;;3.60;1.83;;;;;;;;;;4197240;28;20052;-44
2022/03/25 09:47:20;;;;;;;3.40;2.20;;;;;;;;;;4196482;28;20048;-43
2022/03/25 09:49:21;;;;;;;3.70;1.90;;;;;;;;;;4195142;28;20400;-44
2022/03/25 09:51:22;;;;;;;3.05;2.10;;;;;;;;;;4201302;28;20094;-43
2022/03/25 09:53:27;;;;;;;2.17;1.90;;;;;;;;;;4200936;28;20097;-43
2022/03/25 09:55:28;;;;;;;2.42;1.70;;;;;;;;;;4204151;28;20476;-42
2022/03/25 09:57:30;;;;;;;2.85;2.00;;;;;;;;;;4204613;28;20495;-42
2022/03/25 09:59:31;;;;;;;3.90;2.25;;;;;;;;;;4201966;28;20528;-43
2022/03/25 10:01:33;;;;;;;2.65;2.10;;;;;;;;;;4201040;28;20044;-43
2022/03/25 10:03:37;;;;;;;3.47;1.92;;;;;;;;;;4200306;28;20726;-43
2022/03/25 10:05:53;;;;;;;2.85;1.83;;;;;;;;;;4204478;28;20647;-43
2022/03/25 10:07:57;;;;;;;2.40;2.08;;;;;;;;;;4203463;28;20056;-42
2022/03/25 10:10:07;;;;;;;2.35;1.95;;;;;;;;;;4201217;28;20043;-43
2022/03/25 10:12:22;;;;;;;2.22;1.88;;;;;;;;;;4199688;28;20056;-44
2022/03/25 10:14:24;;;;;;;3.60;1.80;;;;;;;;;;4201082;28;20048;-44
2022/03/25 10:16:26;;;;;;;3.00;1.80;;;;;;;;;;4200959;28;20376;-44
2022/03/25 10:18:27;;;;;;;2.92;1.90;;;;;;;;;;4207836;28;20047;-44
2022/03/25 10:20:31;;;;;;;4.45;1.92;;;;;;;;;;4205034;28;20329;-44
2022/03/25 10:22:32;;;;;;;3.42;1.90;;;;;;;;;;4208671;28;20044;-44
2022/03/25 10:24:39;;;;;;;2.92;2.17;;;;;;;;;;4206535;28;20513;-43
2022/03/25 10:26:40;;;;;;;3.08;2.08;;;;;;;;;;4208559;28;20040;-44
2022/03/25 10:28:42;;;;;;;2.58;2.05;;;;;;;;;;4207640;28;20055;-45
2022/03/25 10:30:43;;;;;;;4.53;2.22;;;;;;;;;;4207911;28;20051;-43
2022/03/25 10:32:44;;;;;;;2.67;2.30;;;;;;;;;;4208672;28;20040;-45
2022/03/25 10:34:59;;;;;;;2.92;1.90;;;;;;;;;;4210202;28;20048;-44
2022/03/25 10:37:01;;;;;;;2.67;1.90;;;;;;;;;;4208371;28;20043;-44
2022/03/25 10:39:06;;;;;;;2.85;1.90;;;;;;;;;;4208915;28;20062;-43
2022/03/25 10:41:07;;;;;;;2.30;1.88;;;;;;;;;;4210518;28;20039;-42
2022/03/25 10:43:09;;;;;;;2.30;1.88;;;;;;;;;;4207244;28;20532;-43
2022/03/25 10:45:24;;;;;;;4.82;1.80;;;;;;;;;;4209978;28;20048;-43
2022/03/25 10:47:26;;;;;;;3.33;1.90;;;;;;;;;;4207080;28;20047;-43
2022/03/25 10:49:36;;;;;;;2.17;1.55;;;;;;;;;;4208553;28;20052;-43
2022/03/25 10:51:38;;;;;;;3.85;1.83;;;;;;;;;;4209346;28;20101;-45
2022/03/25 10:53:43;;;;;;;2.53;1.63;;;;;;;;;;4210120;28;20036;-45
2022/03/25 10:55:51;;;;;;;2.33;1.88;;;;;;;;;;4210545;28;20480;-46
2022/03/25 10:57:56;;;;;;;2.83;1.70;;;;;;;;;;4212373;28;20044;-46
2022/03/25 10:59:58;;;;;;;2.78;2.00;;;;;;;;;;4208499;28;20108;-45
2022/03/25 11:02:04;;;;;;;3.17;1.77;;;;;;;;;;4212446;28;20085;-44
2022/03/25 11:04:05;;;;;;;3.03;1.77;;;;;;;;;;4212719;28;20040;-43
2022/03/25 11:06:06;;;;;;;2.78;1.88;;;;;;;;;;4212668;28;20399;-43
2022/03/25 11:08:08;;;;;;;3.55;2.13;;;;;;;;;;4213762;28;20450;-43
2022/03/25 11:10:13;;;;;;;3.60;1.75;;;;;;;;;;4212463;28;20455;-43
2022/03/25 11:12:14;;;;;;;2.17;1.75;;;;;;;;;;4208447;28;20065;-44
2022/03/25 11:14:16;;;;;;;6.63;2.40;;;;;;;;;;4211759;28;20036;-44
2022/03/25 11:16:17;;;;;;;1.70;1.50;;;;;;;;;;4209475;28;20504;-44
2022/03/25 11:18:19;;;;;;;3.13;1.90;;;;;;;;;;4208809;28;20093;-44
2022/03/25 11:20:21;;;;;;;2.53;1.80;;;;;;;;;;4212861;28;20475;-45
2022/03/25 11:22:24;;;;;;;2.05;1.77;;;;;;;;;;4211366;28;20113;-45
2022/03/25 11:24:33;;;;;;;3.08;2.20;;;;;;;;;;4211113;28;20044;-45
2022/03/25 11:26:36;;;;;;;2.33;1.88;;;;;;;;;;4212678;28;20486;-46
2022/03/25 11:28:38;;;;;;;2.13;1.65;;;;;;;;;;4202503;28;21411;-44
2022/03/25 11:30:39;;;;;;;2.47;1.80;;;;;;;;;;4203676;28;20043;-44
2022/03/25 11:32:58;;;;;;;2.90;1.80;;;;;;;;;;4202355;28;20470;-43
2022/03/25 11:34:59;;;;;;;2.15;1.63;;;;;;;;;;4202227;28;20086;-43
2022/03/25 11:37:17;;;;;;;2.03;1.65;;;;;;;;;;4205936;28;20052;-44
2022/03/25 11:39:22;;;;;;;2.25;1.52;;;;;;;;;;4204909;28;20040;-44
2022/03/25 11:41:27;;;;;;;2.38;1.67;;;;;;;;;;4201810;28;20089;-44
2022/03/25 11:43:28;;;;;;;1.85;1.60;;;;;;;;;;4214539;28;20117;-43
2022/03/25 11:45:34;;;;;;;3.08;1.92;;;;;;;;;;4211489;28;20079;-43
2022/03/25 11:47:35;;;;;;;3.10;1.20;;;;;;;;;;4209104;28;20397;-45
2022/03/25 11:49:36;;;;;;;3.03;1.83;;;;;;;;;;4198877;28;20098;-43
2022/03/25 11:51:37;;;;;;;2.83;1.95;;;;;;;;;;4210364;28;20051;-44
2022/03/25 11:53:38;;;;;;;1.92;1.42;;;;;;;;;;4209557;28;20066;-43
2022/03/25 11:55:54;;;;;;;2.83;1.50;;;;;;;;;;4209286;28;20052;-43
2022/03/25 11:58:12;;;;;;;1.98;1.50;;;;;;;;;;4206826;28;20045;-43
2022/03/25 12:00:28;;;;;;;1.70;1.60;;;;;;;;;;4211829;28;20403;-44
2022/03/25 12:02:32;;;;;;;2.03;1.60;;;;;;;;;;4201576;28;20048;-42
2022/03/25 12:04:34;;;;;;;2.55;1.75;;;;;;;;;;4202442;28;20411;-43
2022/03/25 12:06:54;;;;;;;2.33;1.65;;;;;;;;;;4207681;28;20089;-43
2022/03/25 12:09:07;;;;;;;1.77;1.50;;;;;;;;;;4201914;28;20056;-43
2022/03/25 12:11:10;;;;;;;2.60;1.55;;;;;;;;;;4206868;28;20056;-43
2022/03/25 12:13:11;;;;;;;1.70;1.40;;;;;;;;;;4212961;28;20487;-43
2022/03/25 12:15:14;;;;;;;3.03;2.00;;;;;;;;;;4208998;28;20140;-44
2022/03/25 12:17:24;;;;;;;2.22;1.70;;;;;;;;;;4212611;28;20051;-43